Time;durP1;ratioP1;P1;durP2;ratioP2;P2;SDS_P1;SDS_P2;PMS_P1;PMS_P2;Temp;Humidity;BMP_temperature;BMP_pressure;BME280_temperature;BME280_humidity;BME280_pressure;Samples;Min_cycle;Max_cycle;Signal;HPM_P1;HPM_P2
2023/03/09 00:02:26;;;;;;;17.80;11.18;;;;;;;2.56;55.64;98546.09;5034755;28;20061;-78
2023/03/09 00:04:54;;;;;;;18.73;11.02;;;;;;;2.58;55.83;98554.91;5057231;28;20092;-78
2023/03/09 00:07:22;;;;;;;17.98;10.48;;;;;;;2.58;55.76;98571.94;5041533;28;20063;-78
2023/03/09 00:09:50;;;;;;;19.90;11.10;;;;;;;2.60;55.80;98582.63;5050314;28;20055;-78
2023/03/09 00:12:18;;;;;;;18.10;10.25;;;;;;;2.62;55.85;98578.81;5057682;28;20051;-78
2023/03/09 00:14:47;;;;;;;18.70;10.75;;;;;;;2.64;55.85;98568.72;5061815;28;20068;-78
2023/03/09 00:17:15;;;;;;;18.60;10.60;;;;;;;2.64;55.72;98568.72;5058259;28;20072;-78
2023/03/09 00:19:42;;;;;;;18.50;10.48;;;;;;;2.66;55.79;98559.63;5057157;28;20045;-78
2023/03/09 00:22:10;;;;;;;19.25;10.45;;;;;;;2.67;55.92;98553.19;5058382;28;20045;-78
2023/03/09 00:24:45;;;;;;;19.65;11.00;;;;;;;2.66;55.87;98552.34;5054998;28;20041;-78
2023/03/09 00:27:14;;;;;;;20.45;11.73;;;;;;;2.67;55.97;98554.06;5065354;28;20045;-78
2023/03/09 00:29:41;;;;;;;20.25;11.77;;;;;;;2.68;55.85;98549.50;5043222;28;20051;-78
2023/03/09 00:32:11;;;;;;;19.75;10.75;;;;;;;2.69;55.90;98551.22;5041318;28;20412;-79
2023/03/09 00:34:39;;;;;;;18.15;10.27;;;;;;;2.69;55.96;98546.69;5056418;28;20029;-79
2023/03/09 00:37:06;;;;;;;18.02;11.20;;;;;;;2.69;56.07;98540.41;5043241;28;20522;-78
2023/03/09 00:39:34;;;;;;;19.40;10.88;;;;;;;2.70;55.83;98548.38;5058160;28;20041;-78
2023/03/09 00:42:02;;;;;;;17.55;10.07;;;;;;;2.72;55.95;98561.75;5063410;28;20045;-78
2023/03/09 00:44:30;;;;;;;18.10;10.15;;;;;;;2.72;55.93;98559.06;5039682;28;20040;-78
2023/03/09 00:46:58;;;;;;;17.20;9.73;;;;;;;2.75;55.90;98567.72;5039725;28;20381;-78
2023/03/09 00:49:27;;;;;;;17.75;10.13;;;;;;;2.77;55.89;98563.03;5041312;28;20043;-78
2023/03/09 00:51:55;;;;;;;18.33;10.60;;;;;;;2.77;55.84;98568.44;5057237;28;20041;-78
2023/03/09 00:54:22;;;;;;;18.70;10.40;;;;;;;2.77;55.83;98560.34;5062605;28;20487;-78
2023/03/09 00:56:51;;;;;;;16.77;9.63;;;;;;;2.79;55.83;98565.59;5053729;28;20599;-77
2023/03/09 00:59:19;;;;;;;18.15;9.70;;;;;;;2.80;56.01;98567.31;5037626;28;20540;-77
2023/03/09 01:01:47;;;;;;;17.08;9.48;;;;;;;2.81;55.77;98569.03;5055594;28;20133;-77
2023/03/09 01:04:15;;;;;;;17.13;9.55;;;;;;;2.81;55.65;98569.88;5050810;28;20044;-77
2023/03/09 01:06:44;;;;;;;16.38;9.82;;;;;;;2.82;55.92;98574.28;5045619;28;20339;-77
2023/03/09 01:09:12;;;;;;;17.92;9.43;;;;;;;2.82;55.85;98566.19;5034018;28;20128;-77
2023/03/09 01:11:40;;;;;;;16.50;9.18;;;;;;;2.83;55.76;98572.41;5044414;28;20052;-76
2023/03/09 01:14:08;;;;;;;15.07;8.13;;;;;;;2.83;55.80;98572.41;5035740;28;20068;-77
2023/03/09 01:16:38;;;;;;;14.80;8.85;;;;;;;2.83;55.65;98564.31;5033761;28;20160;-78
2023/03/09 01:19:06;;;;;;;16.70;9.55;;;;;;;2.83;55.71;98565.16;5051598;28;20500;-77
2023/03/09 01:21:34;;;;;;;16.67;9.63;;;;;;;2.84;55.83;98561.47;5054087;28;20087;-78
2023/03/09 01:24:03;;;;;;;16.98;9.38;;;;;;;2.84;55.90;98564.16;5051176;28;20116;-77
2023/03/09 01:26:31;;;;;;;16.45;9.77;;;;;;;2.84;55.77;98571.41;5040536;28;20057;-78
2023/03/09 01:28:59;;;;;;;17.05;9.77;;;;;;;2.83;55.76;98578.66;5053839;28;20049;-78
2023/03/09 01:31:26;;;;;;;17.20;9.90;;;;;;;2.83;55.70;98585.91;5052499;28;20057;-79
2023/03/09 01:33:54;;;;;;;14.35;8.90;;;;;;;2.84;55.70;98574.13;5051571;28;20528;-77
2023/03/09 01:36:22;;;;;;;16.40;9.18;;;;;;;2.84;55.54;98593.03;5033699;28;20045;-77
2023/03/09 01:38:50;;;;;;;18.20;10.30;;;;;;;2.83;55.65;98599.41;5046264;28;20116;-77
2023/03/09 01:41:22;;;;;;;16.20;9.30;;;;;;;2.84;55.81;98602.00;5058023;28;20137;-77
2023/03/09 01:43:52;;;;;;;15.20;8.70;;;;;;;2.81;55.64;98613.09;5031165;28;20056;-77
2023/03/09 01:46:30;;;;;;;14.68;8.65;;;;;;;2.85;56.07;98625.31;5034562;28;20045;-77
2023/03/09 01:49:07;;;;;;;14.60;8.73;;;;;;;2.84;55.85;98630.84;5027290;28;20122;-78
2023/03/09 01:51:46;;;;;;;14.35;8.35;;;;;;;2.82;55.71;98633.72;5033265;28;20099;-77
2023/03/09 01:54:20;;;;;;;14.82;8.68;;;;;;;2.82;55.86;98627.47;5032737;28;20041;-76
2023/03/09 01:56:54;;;;;;;13.23;7.97;;;;;;;2.81;55.78;98623.91;5025869;28;20052;-77
2023/03/09 01:59:26;;;;;;;12.57;7.68;;;;;;;2.81;55.74;98628.44;5031845;28;20061;-77
2023/03/09 02:01:54;;;;;;;12.53;7.17;;;;;;;2.79;55.55;98649.34;5036717;28;20045;-77
2023/03/09 02:04:27;;;;;;;13.82;7.60;;;;;;;2.81;55.79;98653.63;5027082;28;20037;-78
2023/03/09 02:06:55;;;;;;;;;;;;;;;2.58;56.62;98658.38;5046264;28;20045;-78
2023/03/09 02:09:32;;;;;;;10.60;6.07;;;;;;;2.74;55.84;98667.81;5048499;28;20416;-78
2023/03/09 02:12:04;;;;;;;12.38;6.82;;;;;;;2.76;55.60;98672.06;5041745;28;20131;-78
2023/03/09 02:14:33;;;;;;;11.75;6.97;;;;;;;2.76;55.52;98677.47;5042778;28;20048;-77
2023/03/09 02:17:01;;;;;;;12.88;7.32;;;;;;;2.75;55.46;98686.56;5050784;28;20048;-77
2023/03/09 02:19:47;;;;;;;10.88;6.40;;;;;;;2.78;56.03;98691.69;5031514;28;20045;-77
2023/03/09 02:22:15;;;;;;;10.73;6.53;;;;;;;2.74;55.42;98700.22;5033109;28;20059;-77
2023/03/09 02:24:53;;;;;;;11.13;6.85;;;;;;;2.75;55.79;98713.56;5032037;28;20071;-78
2023/03/09 02:27:24;;;;;;;10.45;5.95;;;;;;;2.73;55.63;98706.63;5040011;28;20068;-77
2023/03/09 02:29:55;;;;;;;10.88;6.72;;;;;;;2.71;55.49;98703.19;5040909;28;20042;-78
2023/03/09 02:32:26;;;;;;;11.15;6.53;;;;;;;2.69;55.49;98716.81;5032833;28;20508;-77
2023/03/09 02:34:55;;;;;;;11.43;6.82;;;;;;;2.70;55.20;98721.25;5050176;28;20045;-77
2023/03/09 02:37:31;;;;;;;11.95;7.22;;;;;;;2.73;55.47;98731.78;5032710;28;20095;-77
2023/03/09 02:40:09;;;;;;;11.50;6.72;;;;;;;2.71;55.52;98739.16;5027693;28;20033;-77
2023/03/09 02:42:42;;;;;;;11.80;7.03;;;;;;;2.71;55.45;98746.41;5031930;28;20048;-77
2023/03/09 02:45:12;;;;;;;9.80;5.97;;;;;;;2.71;55.43;98746.41;5045763;28;20044;-77
2023/03/09 02:47:40;;;;;;;10.30;6.38;;;;;;;2.70;55.38;98750.09;5031886;28;20497;-78
2023/03/09 02:50:11;;;;;;;11.43;7.15;;;;;;;2.71;55.27;98757.22;5031179;28;20046;-77
2023/03/09 02:52:39;;;;;;;11.75;7.28;;;;;;;2.70;55.35;98764.47;5031014;28;20103;-79
2023/03/09 02:55:08;;;;;;;11.52;6.70;;;;;;;2.70;55.40;98760.91;5031770;28;20045;-77
2023/03/09 02:57:36;;;;;;;11.95;7.15;;;;;;;2.69;55.34;98768.13;5035071;28;20052;-77
2023/03/09 03:00:08;;;;;;;11.95;6.97;;;;;;;2.71;55.52;98768.00;5033228;28;20574;-78
2023/03/09 03:02:37;;;;;;;10.70;6.70;;;;;;;2.69;55.35;98762.75;5049917;28;20045;-78
2023/03/09 03:05:07;;;;;;;12.52;7.15;;;;;;;2.70;55.48;98758.19;5044737;28;20048;-78
2023/03/09 03:07:38;;;;;;;11.50;7.43;;;;;;;2.67;55.36;98762.00;5038544;28;20041;-78
2023/03/09 03:10:06;;;;;;;13.25;7.35;;;;;;;2.69;55.44;98773.53;5034134;28;20487;-77
2023/03/09 03:12:34;;;;;;;10.18;6.35;;;;;;;2.68;55.47;98771.81;5033497;28;20033;-78
2023/03/09 03:15:04;;;;;;;12.10;6.85;;;;;;;2.69;55.35;98778.09;5036640;28;20049;-78
2023/03/09 03:17:33;;;;;;;10.85;6.85;;;;;;;2.69;55.65;98778.94;5032566;28;20041;-78
2023/03/09 03:20:02;;;;;;;11.80;7.32;;;;;;;2.68;55.52;98779.94;5053000;28;20047;-77
2023/03/09 03:22:33;;;;;;;12.50;7.43;;;;;;;2.65;55.38;98791.03;5034526;28;20072;-77
2023/03/09 03:25:01;;;;;;;13.80;7.18;;;;;;;2.68;55.43;98796.13;5050460;28;20048;-77
2023/03/09 03:27:28;;;;;;;12.52;7.53;;;;;;;2.67;55.38;98797.13;5038134;28;20084;-77
2023/03/09 03:29:58;;;;;;;11.52;6.80;;;;;;;2.67;55.39;98802.53;5050609;28;20051;-78
2023/03/09 03:32:26;;;;;;;13.82;8.10;;;;;;;2.67;55.61;98815.16;5038460;28;20045;-77
2023/03/09 03:34:57;;;;;;;11.95;7.80;;;;;;;2.68;55.34;98828.53;5035246;28;20045;-78
2023/03/09 03:37:25;;;;;;;11.70;7.40;;;;;;;2.67;55.39;98820.56;5031150;28;20041;-78
2023/03/09 03:39:53;;;;;;;13.27;8.23;;;;;;;2.66;55.15;98819.72;5055806;28;20095;-78
2023/03/09 03:42:20;;;;;;;12.27;7.57;;;;;;;2.67;55.39;98821.44;5044199;28;20060;-78
2023/03/09 03:44:48;;;;;;;12.43;6.93;;;;;;;2.66;55.36;98838.63;5027492;28;20056;-78
2023/03/09 03:47:19;;;;;;;13.60;8.50;;;;;;;2.67;55.37;98839.47;5034341;28;20371;-77
2023/03/09 03:49:47;;;;;;;13.43;7.75;;;;;;;2.67;55.45;98850.28;5032541;28;20094;-78
2023/03/09 03:52:17;;;;;;;12.45;7.57;;;;;;;2.67;55.31;98834.94;5028054;28;20471;-78
2023/03/09 03:54:46;;;;;;;12.18;7.30;;;;;;;2.66;55.40;98835.91;5044389;28;20092;-77
2023/03/09 03:57:13;;;;;;;15.18;7.95;;;;;;;2.66;55.24;98852.13;5036504;28;20049;-77
2023/03/09 03:59:41;;;;;;;12.52;7.80;;;;;;;2.66;55.50;98856.69;5029210;28;20048;-78
2023/03/09 04:02:09;;;;;;;11.95;7.20;;;;;;;2.66;55.50;98862.09;5039003;28;20068;-78
2023/03/09 04:04:38;;;;;;;13.27;7.60;;;;;;;2.66;55.36;98862.09;5031615;28;20386;-77
2023/03/09 04:07:08;;;;;;;13.10;7.65;;;;;;;2.66;55.35;98871.03;5042049;28;20041;-76
2023/03/09 04:09:38;;;;;;;13.63;7.93;;;;;;;2.66;55.43;98881.84;5040617;28;20047;-77
2023/03/09 04:12:07;;;;;;;13.05;8.10;;;;;;;2.67;55.47;98874.59;5047932;28;20047;-77
2023/03/09 04:14:38;;;;;;;13.95;7.97;;;;;;;2.66;55.38;98875.59;5030655;28;20041;-78
2023/03/09 04:17:08;;;;;;;13.23;7.68;;;;;;;2.65;55.40;98872.03;5037901;28;20080;-77
2023/03/09 04:19:36;;;;;;;14.77;8.80;;;;;;;2.66;55.31;98872.91;5061509;28;20047;-77
2023/03/09 04:22:04;;;;;;;17.15;8.90;;;;;;;2.67;55.29;98880.00;5056676;28;20501;-77
2023/03/09 04:24:33;;;;;;;15.07;9.07;;;;;;;2.66;55.38;98892.63;5047250;28;20041;-77
2023/03/09 04:27:02;;;;;;;15.75;8.90;;;;;;;2.66;55.18;98895.34;5038292;28;20047;-78
2023/03/09 04:29:48;;;;;;;15.65;8.43;;;;;;;2.65;55.44;98899.06;5036171;28;20048;-77
2023/03/09 04:32:20;;;;;;;15.98;9.27;;;;;;;2.66;55.32;98910.72;5032840;28;20069;-78
2023/03/09 04:34:51;;;;;;;15.90;9.20;;;;;;;2.66;55.28;98922.34;5026843;28;20051;-78
2023/03/09 04:37:20;;;;;;;16.10;9.15;;;;;;;2.65;55.42;98926.06;5033016;28;20053;-78
2023/03/09 04:39:51;;;;;;;17.40;9.82;;;;;;;2.66;55.40;98919.63;5025786;28;20128;-77
2023/03/09 04:42:21;;;;;;;19.25;10.15;;;;;;;2.67;55.25;98924.06;5032807;28;20053;-78
2023/03/09 04:44:49;;;;;;;19.67;10.68;;;;;;;2.66;55.37;98924.22;5049674;28;20721;-78
2023/03/09 04:47:17;;;;;;;19.65;9.95;;;;;;;2.65;55.25;98923.34;5035865;28;20139;-78
2023/03/09 04:49:46;;;;;;;16.83;9.75;;;;;;;2.65;55.36;98917.97;5034967;28;20072;-78
2023/03/09 04:52:14;;;;;;;18.33;10.23;;;;;;;2.64;55.33;98922.50;5035740;28;20110;-77
2023/03/09 04:54:43;;;;;;;19.42;10.30;;;;;;;2.65;55.32;98923.34;5035755;28;20068;-78
2023/03/09 04:57:11;;;;;;;18.85;10.38;;;;;;;2.66;55.41;98921.53;5040738;28;20052;-76
2023/03/09 04:59:40;;;;;;;20.52;10.52;;;;;;;2.66;55.35;98932.31;5040627;28;20037;-77
2023/03/09 05:02:08;;;;;;;20.73;10.32;;;;;;;2.65;55.34;98939.56;5041307;28;20496;-78
2023/03/09 05:04:41;;;;;;;20.27;10.25;;;;;;;2.64;55.31;98946.81;5040882;28;20593;-77
2023/03/09 05:07:09;;;;;;;22.33;11.23;;;;;;;2.65;55.25;98942.25;5042272;28;20068;-77
2023/03/09 05:09:38;;;;;;;23.60;10.43;;;;;;;2.65;55.44;98947.66;5060752;28;20102;-78
2023/03/09 05:12:06;;;;;;;21.42;11.45;;;;;;;2.65;55.26;98955.75;5041131;28;20041;-78
2023/03/09 05:14:37;;;;;;;20.77;11.27;;;;;;;2.64;55.32;98962.16;5056721;28;20450;-77
2023/03/09 05:17:07;;;;;;;22.95;11.23;;;;;;;2.65;55.25;98961.16;5056464;28;20146;-77
2023/03/09 05:19:36;;;;;;;22.38;11.57;;;;;;;2.63;55.35;98947.78;5041622;28;20056;-78
2023/03/09 05:22:04;;;;;;;22.00;11.30;;;;;;;2.64;55.30;98941.41;5051266;28;20594;-77
2023/03/09 05:24:32;;;;;;;21.98;11.40;;;;;;;2.64;55.47;98945.94;5033998;28;20037;-78
2023/03/09 05:27:00;;;;;;;23.75;11.52;;;;;;;2.64;55.33;98957.59;5035064;28;20048;-78
2023/03/09 05:29:32;;;;;;;20.90;11.32;;;;;;;2.64;55.32;98963.00;5034464;28;20045;-78
2023/03/09 05:31:59;;;;;;;21.60;11.07;;;;;;;2.64;55.50;98968.41;5038671;28;20131;-78
2023/03/09 05:34:30;;;;;;;23.10;11.45;;;;;;;2.65;55.41;98982.78;5052241;28;20049;-77
2023/03/09 05:36:59;;;;;;;24.42;11.13;;;;;;;2.65;55.38;98990.88;5044093;28;20527;-79
2023/03/09 05:39:28;;;;;;;23.63;11.90;;;;;;;2.67;55.45;98993.41;5036569;28;20037;-78
2023/03/09 05:41:56;;;;;;;23.60;11.50;;;;;;;2.66;55.38;98997.13;5043113;28;20048;-78
2023/03/09 05:44:30;;;;;;;24.73;11.85;;;;;;;2.66;55.20;98997.97;5042824;28;20068;-78
2023/03/09 05:46:58;;;;;;;24.88;11.80;;;;;;;2.66;55.33;99000.66;5054187;28;20048;-78
2023/03/09 05:49:27;;;;;;;26.45;12.55;;;;;;;2.67;55.30;98999.69;5035962;28;20072;-78
2023/03/09 05:51:56;;;;;;;24.95;12.15;;;;;;;2.67;55.45;98999.69;5043907;28;20107;-78
2023/03/09 05:54:24;;;;;;;25.85;12.13;;;;;;;2.67;55.38;99002.38;5033405;28;20037;-77
2023/03/09 05:56:56;;;;;;;25.77;13.02;;;;;;;2.67;55.33;99017.72;5043559;28;20045;-77
2023/03/09 05:59:25;;;;;;;26.05;11.60;;;;;;;2.66;55.36;99024.97;5034240;28;20040;-77
2023/03/09 06:01:53;;;;;;;25.00;12.18;;;;;;;2.67;55.35;99017.72;5035477;28;20091;-78
2023/03/09 06:04:24;;;;;;;24.13;11.05;;;;;;;2.67;55.50;99025.84;5036008;28;20059;-77
2023/03/09 06:06:58;;;;;;;22.50;11.55;;;;;;;2.66;55.41;99038.47;5058685;28;20053;-76
2023/03/09 06:09:32;;;;;;;26.17;12.07;;;;;;;2.67;55.31;99040.19;5035782;28;20633;-77
2023/03/09 06:12:02;;;;;;;24.08;12.40;;;;;;;2.69;55.43;99042.78;5041331;28;20056;-78
2023/03/09 06:14:32;;;;;;;24.85;12.40;;;;;;;2.68;55.44;99052.72;5034208;28;20508;-78
2023/03/09 06:17:01;;;;;;;25.77;11.98;;;;;;;2.69;55.49;99057.13;5040494;28;20096;-78
2023/03/09 06:19:29;;;;;;;26.42;12.70;;;;;;;2.70;55.34;99063.41;5033957;28;20053;-77
2023/03/09 06:21:58;;;;;;;25.98;12.38;;;;;;;2.71;55.37;99059.72;5053140;28;20064;-78
2023/03/09 06:24:26;;;;;;;27.05;13.45;;;;;;;2.70;55.48;99058.84;5033718;28;20052;-78
2023/03/09 06:26:57;;;;;;;28.40;12.90;;;;;;;2.72;55.15;99050.63;5035091;28;20036;-77
2023/03/09 06:29:37;;;;;;;24.23;12.68;;;;;;;2.67;55.20;99042.91;5031840;28;20044;-78
2023/03/09 06:32:06;;;;;;;26.63;13.25;;;;;;;2.68;55.23;99052.72;5034814;28;20053;-77
2023/03/09 06:34:36;;;;;;;28.25;13.10;;;;;;;2.68;55.31;99058.13;5033189;28;20040;-77
2023/03/09 06:37:09;;;;;;;26.98;13.00;;;;;;;2.68;55.30;99068.94;5045971;28;20040;-77
2023/03/09 06:39:38;;;;;;;26.45;12.35;;;;;;;2.67;55.38;99069.91;5031322;28;20056;-77
2023/03/09 06:42:06;;;;;;;29.55;13.13;;;;;;;2.65;55.26;99061.09;5049644;28;20063;-77
2023/03/09 06:44:42;;;;;;;31.02;13.13;;;;;;;2.64;55.03;99068.34;5031443;28;20048;-77
2023/03/09 06:47:11;;;;;;;27.08;12.63;;;;;;;2.67;55.16;99066.34;5045642;28;20055;-77
2023/03/09 06:49:42;;;;;;;30.02;14.30;;;;;;;2.64;55.21;99071.03;5024883;28;20045;-78
2023/03/09 06:52:15;;;;;;;28.55;14.25;;;;;;;2.65;55.26;99071.91;5060633;28;20061;-76
2023/03/09 06:54:43;;;;;;;29.95;13.43;;;;;;;2.62;55.27;99073.00;5051357;28;20041;-79
2023/03/09 06:57:15;;;;;;;27.45;12.90;;;;;;;2.60;55.28;99085.78;5042042;28;20041;-81
2023/03/09 06:59:43;;;;;;;29.25;12.93;;;;;;;2.61;55.10;99079.38;5036888;28;20108;-77
2023/03/09 07:02:12;;;;;;;29.73;13.32;;;;;;;2.63;55.22;99084.66;5050039;28;20045;-78
2023/03/09 07:04:41;;;;;;;31.33;13.75;;;;;;;2.61;55.35;99084.78;5039735;28;20041;-77
2023/03/09 07:07:08;;;;;;;29.15;13.23;;;;;;;2.61;55.39;99095.59;5034651;28;20236;-78
2023/03/09 07:09:42;;;;;;;29.83;12.40;;;;;;;2.60;55.66;99087.63;5047804;28;20044;-79
2023/03/09 07:12:11;;;;;;;29.75;13.00;;;;;;;2.60;55.36;99087.63;5062952;28;20049;-79
2023/03/09 07:14:39;;;;;;;27.98;13.15;;;;;;;2.62;55.29;99101.84;5050277;28;20128;-78
2023/03/09 07:17:12;;;;;;;29.15;13.15;;;;;;;2.61;55.29;99094.72;5037144;28;20044;-78
2023/03/09 07:19:39;;;;;;;30.10;14.00;;;;;;;2.59;55.34;99115.59;5036556;28;20045;-79
2023/03/09 07:22:08;;;;;;;28.67;11.98;;;;;;;2.62;55.29;99112.66;5037460;28;20060;-79
2023/03/09 07:24:36;;;;;;;27.83;12.48;;;;;;;2.62;55.39;99112.66;5059147;28;20049;-80
2023/03/09 07:27:05;;;;;;;26.35;12.07;;;;;;;2.64;55.50;99121.50;5038020;28;20381;-79
2023/03/09 07:29:33;;;;;;;25.63;12.88;;;;;;;2.64;55.48;99130.47;5041673;28;20068;-79
2023/03/09 07:32:02;;;;;;;26.65;12.80;;;;;;;2.67;55.60;99137.44;5037985;28;20041;-78
2023/03/09 07:34:33;;;;;;;24.60;11.43;;;;;;;2.69;55.60;99143.56;5035231;28;20048;-79
2023/03/09 07:37:01;;;;;;;25.80;12.55;;;;;;;2.69;55.50;99148.13;5057116;28;20045;-79
2023/03/09 07:39:30;;;;;;;28.70;13.10;;;;;;;2.71;55.59;99157.81;5044892;28;20496;-79
2023/03/09 07:41:58;;;;;;;26.40;11.63;;;;;;;2.72;55.62;99161.38;5053562;28;20041;-79
2023/03/09 07:44:28;;;;;;;26.08;11.88;;;;;;;2.76;55.68;99160.13;5041189;28;20083;-79
2023/03/09 07:46:56;;;;;;;25.70;11.55;;;;;;;2.77;55.77;99168.13;5036855;28;20460;-79
2023/03/09 07:49:24;;;;;;;31.05;12.98;;;;;;;2.79;55.65;99166.16;5054630;28;20045;-79
2023/03/09 07:51:52;;;;;;;27.73;12.95;;;;;;;2.79;55.68;99166.16;5031193;28;20069;-79
2023/03/09 07:54:20;;;;;;;26.55;12.68;;;;;;;2.81;55.42;99180.41;5037656;28;20045;-78
2023/03/09 07:56:50;;;;;;;27.85;12.95;;;;;;;2.83;55.73;99186.50;5054666;28;20433;-79
2023/03/09 07:59:20;;;;;;;26.92;12.57;;;;;;;2.85;55.76;99187.25;5052965;28;20069;-79
2023/03/09 08:01:49;;;;;;;28.55;12.38;;;;;;;2.87;55.82;99185.28;5035196;28;20052;-79
2023/03/09 08:04:17;;;;;;;26.50;12.50;;;;;;;2.88;55.74;99196.97;5037352;28;20045;-79
2023/03/09 08:06:52;;;;;;;26.33;12.73;;;;;;;2.89;56.00;99209.50;5049968;28;20045;-79
2023/03/09 08:09:21;;;;;;;27.48;12.80;;;;;;;2.91;55.84;99218.31;5042046;28;20041;-79
2023/03/09 08:11:49;;;;;;;24.33;11.48;;;;;;;2.92;55.73;99222.72;5047516;28;20041;-79
2023/03/09 08:14:17;;;;;;;23.63;12.00;;;;;;;2.93;55.79;99230.72;5034976;28;20096;-79
2023/03/09 08:16:45;;;;;;;24.05;11.27;;;;;;;2.94;55.76;99229.72;5054720;28;20080;-79
2023/03/09 08:19:19;;;;;;;23.73;11.85;;;;;;;2.96;55.73;99230.47;5056992;28;20543;-81
2023/03/09 08:21:47;;;;;;;24.23;10.98;;;;;;;2.97;55.75;99236.75;5039451;28;20071;-79
2023/03/09 08:24:16;;;;;;;23.15;11.00;;;;;;;2.98;55.86;99242.03;5039328;28;20452;-80
2023/03/09 08:26:44;;;;;;;27.92;12.40;;;;;;;2.99;55.94;99234.75;5076082;28;20044;-79
2023/03/09 08:29:12;;;;;;;23.85;11.35;;;;;;;3.00;55.69;99242.72;5060714;28;20420;-79
2023/03/09 08:31:40;;;;;;;21.67;10.90;;;;;;;3.01;55.82;99247.16;5058536;28;20033;-79
2023/03/09 08:34:09;;;;;;;26.15;12.15;;;;;;;3.02;55.91;99242.63;5057365;28;20057;-78
2023/03/09 08:36:39;;;;;;;27.63;12.68;;;;;;;3.05;55.89;99252.31;5053617;28;20049;-79
2023/03/09 08:39:06;;;;;;;25.90;12.00;;;;;;;3.05;55.83;99258.59;5059779;28;20041;-79
2023/03/09 08:41:34;;;;;;;25.67;11.82;;;;;;;3.05;56.06;99264.00;5056632;28;20053;-78
2023/03/09 08:44:02;;;;;;;29.08;13.27;;;;;;;3.06;56.05;99264.84;5047654;28;20120;-79
2023/03/09 08:46:30;;;;;;;27.88;13.10;;;;;;;3.07;56.05;99272.81;5054491;28;20048;-77
2023/03/09 08:49:00;;;;;;;29.00;12.93;;;;;;;3.08;56.04;99269.13;5054379;28;20041;-77
2023/03/09 08:51:28;;;;;;;30.40;14.48;;;;;;;3.09;56.03;99275.41;5055834;28;20063;-77
2023/03/09 08:53:57;;;;;;;27.67;12.80;;;;;;;3.12;56.14;99283.28;5050784;28;20044;-78
2023/03/09 08:56:25;;;;;;;28.80;13.80;;;;;;;3.13;56.12;99287.69;5048246;28;20049;-77
2023/03/09 08:58:54;;;;;;;27.33;13.02;;;;;;;3.13;56.11;99296.66;5045918;28;20053;-77
2023/03/09 09:01:21;;;;;;;26.10;12.73;;;;;;;3.14;56.22;99301.09;5057834;28;20041;-79
2023/03/09 09:03:49;;;;;;;26.25;12.50;;;;;;;3.16;56.17;99300.94;5030945;28;20037;-77
2023/03/09 09:06:17;;;;;;;24.48;11.55;;;;;;;3.18;56.15;99296.28;5046133;28;20044;-77
2023/03/09 09:08:45;;;;;;;24.00;11.43;;;;;;;3.19;56.17;99306.09;5037076;28;20060;-77
2023/03/09 09:11:16;;;;;;;26.83;13.35;;;;;;;3.21;56.21;99310.41;5056744;28;20073;-77
2023/03/09 09:13:44;;;;;;;24.63;11.75;;;;;;;3.21;56.22;99318.53;5038782;28;20156;-78
2023/03/09 09:16:15;;;;;;;25.55;11.93;;;;;;;3.22;56.11;99317.53;5039586;28;20052;-78
2023/03/09 09:18:43;;;;;;;25.35;11.90;;;;;;;3.24;56.40;99326.38;5051845;28;20041;-80
2023/03/09 09:21:13;;;;;;;26.67;13.13;;;;;;;3.26;56.28;99331.66;5033083;28;20606;-79
2023/03/09 09:23:43;;;;;;;27.52;12.60;;;;;;;3.27;56.24;99330.66;5052423;28;20040;-77
2023/03/09 09:26:12;;;;;;;27.38;12.82;;;;;;;3.28;56.33;99344.06;5052941;28;20500;-78
2023/03/09 09:28:42;;;;;;;27.80;13.40;;;;;;;3.29;56.39;99351.19;5038371;28;20268;-77
2023/03/09 09:31:15;;;;;;;29.17;12.93;;;;;;;3.29;56.36;99345.78;5053534;28;20044;-77
2023/03/09 09:33:45;;;;;;;30.75;14.30;;;;;;;3.30;56.31;99346.66;5035509;28;20088;-78
2023/03/09 09:36:15;;;;;;;31.15;14.95;;;;;;;3.33;56.30;99351.81;5034941;28;20072;-77
2023/03/09 09:38:43;;;;;;;35.50;16.48;;;;;;;3.32;56.42;99353.66;5033443;28;20437;-78
2023/03/09 09:41:19;;;;;;;30.10;14.50;;;;;;;3.34;56.42;99354.41;5054030;28;20049;-77
2023/03/09 09:43:51;;;;;;;32.70;14.50;;;;;;;3.34;56.40;99358.97;5051776;28;20076;-77
2023/03/09 09:46:21;;;;;;;29.97;14.90;;;;;;;3.33;56.23;99355.38;5036514;28;20524;-77
2023/03/09 09:48:50;;;;;;;30.65;14.20;;;;;;;3.34;56.08;99354.41;5035241;28;20787;-77
2023/03/09 09:51:49;;;;;;;31.20;14.80;;;;;;;3.36;56.80;99357.00;5036122;28;20124;-77
2023/03/09 09:54:26;;;;;;;28.52;14.02;;;;;;;3.35;56.60;99356.13;5052813;28;20041;-79
2023/03/09 09:57:00;;;;;;;29.08;13.85;;;;;;;3.36;56.60;99354.28;5057633;28;20048;-79
2023/03/09 09:59:37;;;;;;;28.45;14.00;;;;;;;3.37;56.63;99348.75;5047692;28;20037;-79
2023/03/09 10:02:23;;;;;;;29.10;14.07;;;;;;;3.38;56.96;99338.81;5064417;28;20059;-79
2023/03/09 10:04:57;;;;;;;25.52;12.63;;;;;;;3.38;56.74;99347.78;5065183;28;20047;-79
2023/03/09 10:07:25;;;;;;;29.77;13.80;;;;;;;3.38;56.60;99358.59;5048837;28;20053;-78
2023/03/09 10:09:57;;;;;;;25.90;12.82;;;;;;;3.42;56.78;99375.41;5051270;28;20186;-78
2023/03/09 10:12:25;;;;;;;25.88;13.02;;;;;;;3.40;56.44;99380.94;5056394;28;20075;-78
2023/03/09 10:14:58;;;;;;;29.02;12.85;;;;;;;3.45;56.75;99394.09;5047889;28;20041;-78
2023/03/09 10:17:32;;;;;;;30.27;13.77;;;;;;;3.47;56.68;99402.97;5061734;28;20048;-78
2023/03/09 10:20:09;;;;;;;26.08;12.93;;;;;;;3.48;56.80;99401.13;5065622;28;20060;-78
2023/03/09 10:22:40;;;;;;;25.77;12.70;;;;;;;3.48;56.76;99404.69;5048718;28;20048;-78
2023/03/09 10:25:12;;;;;;;25.50;12.90;;;;;;;3.50;56.86;99407.25;5048151;28;20267;-78
2023/03/09 10:27:43;;;;;;;27.13;12.88;;;;;;;3.51;56.72;99407.13;5063692;28;20041;-78
2023/03/09 10:30:21;;;;;;;27.63;12.88;;;;;;;3.54;56.92;99403.31;5037337;28;20061;-78
2023/03/09 10:32:54;;;;;;;25.63;12.05;;;;;;;3.54;56.80;99408.72;5060933;28;20045;-79
2023/03/09 10:35:30;;;;;;;28.33;12.52;;;;;;;3.54;56.80;99406.03;5039051;28;20037;-78
2023/03/09 10:37:59;;;;;;;22.45;12.35;;;;;;;3.53;56.78;99405.16;5041223;28;20123;-78
2023/03/09 10:40:30;;;;;;;27.55;12.55;;;;;;;3.56;56.68;99407.63;5059271;28;20037;-78
2023/03/09 10:42:58;;;;;;;24.15;11.68;;;;;;;3.56;56.68;99410.34;5048994;28;20045;-77
2023/03/09 10:45:28;;;;;;;24.08;11.73;;;;;;;3.59;56.76;99418.19;5047026;28;20041;-78
2023/03/09 10:47:59;;;;;;;22.40;11.00;;;;;;;3.60;56.70;99424.44;5066612;28;20037;-78
2023/03/09 10:50:31;;;;;;;22.08;11.75;;;;;;;3.61;56.63;99424.34;5064805;28;20075;-78
2023/03/09 10:53:22;;;;;;;25.08;11.70;;;;;;;3.63;56.91;99424.22;5046383;28;20053;-78
2023/03/09 10:55:54;;;;;;;24.70;12.05;;;;;;;3.62;56.73;99428.75;5052969;28;20040;-78
2023/03/09 10:58:32;;;;;;;22.20;11.73;;;;;;;3.60;56.82;99428.03;5059367;28;20056;-77
2023/03/09 11:01:04;;;;;;;23.52;11.15;;;;;;;3.65;56.85;99430.34;5052687;28;20512;-78
2023/03/09 11:03:35;;;;;;;23.95;11.43;;;;;;;3.65;56.70;99423.09;5065103;28;20041;-77
2023/03/09 11:06:26;;;;;;;22.95;11.10;;;;;;;3.68;57.17;99432.81;5052120;28;20065;-78
2023/03/09 11:08:56;;;;;;;21.38;10.55;;;;;;;3.68;56.88;99420.13;5059186;28;20044;-78
2023/03/09 11:11:41;;;;;;;21.83;11.18;;;;;;;3.69;56.87;99404.75;5074649;28;20128;-77
2023/03/09 11:14:29;;;;;;;23.17;11.38;;;;;;;3.73;56.95;99409.78;5050761;28;20067;-77
2023/03/09 11:17:00;;;;;;;23.35;11.63;;;;;;;3.73;56.89;99428.72;5056740;28;20044;-77
2023/03/09 11:19:29;;;;;;;20.85;11.25;;;;;;;3.75;56.74;99431.31;5064249;28;20045;-77
2023/03/09 11:22:07;;;;;;;18.85;9.95;;;;;;;3.78;56.80;99429.22;5047131;28;20076;-77
2023/03/09 11:24:38;;;;;;;17.88;9.13;;;;;;;3.80;56.57;99420.13;5043492;28;20041;-78
2023/03/09 11:27:11;;;;;;;17.92;9.52;;;;;;;3.81;56.90;99420.00;5055479;28;20052;-78
2023/03/09 11:29:49;;;;;;;20.00;10.05;;;;;;;3.84;56.85;99424.28;5066737;28;20044;-77
2023/03/09 11:32:19;;;;;;;18.35;9.68;;;;;;;3.86;56.80;99425.03;5044588;28;20100;-77
2023/03/09 11:34:48;;;;;;;17.42;9.63;;;;;;;3.87;56.88;99430.31;5061437;28;20041;-77
2023/03/09 11:37:19;;;;;;;20.25;10.00;;;;;;;3.89;56.91;99430.19;5059058;28;20378;-77
2023/03/09 11:39:52;;;;;;;19.10;10.50;;;;;;;3.92;56.89;99440.75;5043790;28;20045;-78
2023/03/09 11:42:28;;;;;;;19.52;10.07;;;;;;;3.91;56.92;99442.59;5041246;28;20049;-77
2023/03/09 11:44:56;;;;;;;20.85;10.27;;;;;;;3.92;56.74;99435.34;5048968;28;20052;-77